createdAt,value
2017-07-22T00:01:54.883Z,65.73
2017-07-22T00:04:21.264Z,65.62
2017-07-22T00:06:47.624Z,65.74
2017-07-22T00:09:14.779Z,66.04
2017-07-22T00:11:41.903Z,66.10
2017-07-22T00:14:08.302Z,66.31
2017-07-22T00:16:34.666Z,66.45
2017-07-22T00:19:01.054Z,66.37
2017-07-22T00:21:27.438Z,66.57
2017-07-22T00:23:53.807Z,66.46
2017-07-22T00:26:20.179Z,66.45
2017-07-22T00:28:46.537Z,66.25
2017-07-22T00:31:13.072Z,66.12
2017-07-22T00:33:39.703Z,66.04
2017-07-22T00:36:06.092Z,66.11
2017-07-22T00:38:32.474Z,65.96
2017-07-22T00:40:58.851Z,66.08
2017-07-22T00:43:25.215Z,65.96
2017-07-22T00:45:51.610Z,65.85
2017-07-22T00:48:17.971Z,65.97
2017-07-22T00:50:44.338Z,66.06
2017-07-22T00:53:10.711Z,66.25
2017-07-22T00:55:37.851Z,66.24
2017-07-22T00:58:04.231Z,66.34
2017-07-22T01:00:31.370Z,66.20
2017-07-22T01:02:57.732Z,66.43
2017-07-22T01:05:24.863Z,66.40
2017-07-22T01:07:51.256Z,66.60
2017-07-22T01:10:18.410Z,66.83
2017-07-22T01:12:44.784Z,66.87
2017-07-22T01:15:11.908Z,66.94
2017-07-22T01:17:38.278Z,66.82
2017-07-22T01:20:04.663Z,66.89
2017-07-22T01:22:31.023Z,66.97
2017-07-22T01:24:57.425Z,66.90
2017-07-22T01:27:23.798Z,66.97
2017-07-22T01:29:50.158Z,66.81
2017-07-22T01:32:16.550Z,66.78
2017-07-22T01:34:42.925Z,66.80
2017-07-22T01:37:10.064Z,66.48
2017-07-22T01:39:36.422Z,66.83
2017-07-22T01:42:02.806Z,66.88
2017-07-22T01:44:29.958Z,67.15
2017-07-22T01:46:56.324Z,67.28
2017-07-22T01:49:23.731Z,67.28
2017-07-22T01:51:50.099Z,67.17
2017-07-22T01:54:16.470Z,67.00
2017-07-22T01:56:42.857Z,67.05
2017-07-22T01:59:09.237Z,66.84
2017-07-22T02:01:35.602Z,66.55
2017-07-22T02:04:01.970Z,66.77
2017-07-22T02:06:28.326Z,66.76
2017-07-22T02:08:54.690Z,66.42
2017-07-22T02:11:21.836Z,66.64
2017-07-22T02:13:48.197Z,66.43
2017-07-22T02:16:14.563Z,66.26
2017-07-22T02:18:41.695Z,66.57
2017-07-22T02:21:08.079Z,66.66
2017-07-22T02:23:35.202Z,66.77
2017-07-22T02:26:01.567Z,66.99
2017-07-22T02:28:27.942Z,66.94
2017-07-22T02:30:55.078Z,67.03
2017-07-22T02:33:21.438Z,66.87
2017-07-22T02:35:47.808Z,66.90
2017-07-22T02:38:15.097Z,66.75
2017-07-22T02:40:41.491Z,66.74
2017-07-22T02:43:07.879Z,66.82
2017-07-22T02:45:35.006Z,66.57
2017-07-22T02:48:01.411Z,66.46
2017-07-22T02:50:27.781Z,66.33
2017-07-22T02:52:54.165Z,66.54
2017-07-22T02:55:20.535Z,66.27
2017-07-22T02:57:46.900Z,66.16
2017-07-22T03:00:13.279Z,66.14
2017-07-22T03:02:39.668Z,66.48
2017-07-22T03:05:06.037Z,66.44
2017-07-22T03:07:33.187Z,66.52
2017-07-22T03:09:59.547Z,66.54
2017-07-22T03:12:25.923Z,66.43
2017-07-22T03:14:52.278Z,66.41
2017-07-22T03:17:18.637Z,66.41
2017-07-22T03:19:45.014Z,66.22
2017-07-22T03:22:11.390Z,66.46
2017-07-22T03:24:37.753Z,66.31
2017-07-22T03:27:04.126Z,66.21
2017-07-22T03:29:30.502Z,66.05
2017-07-22T03:31:56.904Z,66.16
2017-07-22T03:34:23.254Z,65.97
2017-07-22T03:36:50.402Z,65.93
2017-07-22T03:39:16.760Z,65.82
2017-07-22T03:41:43.178Z,65.84
2017-07-22T03:44:09.571Z,65.68
2017-07-22T03:46:35.962Z,65.76
2017-07-22T03:49:02.342Z,65.94
2017-07-22T03:51:28.708Z,66.19
2017-07-22T03:53:55.095Z,66.14
2017-07-22T03:56:21.470Z,66.35
2017-07-22T03:58:47.830Z,66.90
2017-07-22T04:01:14.207Z,66.98
2017-07-22T04:03:40.590Z,66.50
2017-07-22T04:06:06.960Z,66.93
2017-07-22T04:08:33.319Z,66.22
2017-07-22T04:10:59.713Z,65.76
2017-07-22T04:13:26.076Z,65.70
2017-07-22T04:15:53.252Z,65.61
2017-07-22T04:18:19.625Z,65.56
2017-07-22T04:20:46.010Z,65.49
2017-07-22T04:23:12.394Z,65.46
2017-07-22T04:25:38.758Z,65.44
2017-07-22T04:28:05.134Z,65.44
2017-07-22T04:30:31.522Z,65.43
2017-07-22T04:32:57.890Z,65.47
2017-07-22T04:35:25.022Z,65.71
2017-07-22T04:37:51.396Z,65.72
2017-07-22T04:40:18.519Z,65.69
2017-07-22T04:42:44.881Z,65.70
2017-07-22T04:45:11.250Z,65.72
2017-07-22T04:47:37.862Z,65.64
2017-07-22T04:50:04.234Z,65.88
2017-07-22T04:52:30.594Z,65.91
2017-07-22T04:54:56.964Z,66.56
2017-07-22T04:57:23.326Z,66.33
2017-07-22T04:59:49.718Z,66.51
2017-07-22T05:02:16.078Z,66.01
2017-07-22T05:04:42.450Z,66.29
2017-07-22T05:07:08.812Z,66.05
2017-07-22T05:09:35.938Z,66.08
2017-07-22T05:12:02.299Z,66.20
2017-07-22T05:14:28.743Z,66.05
2017-07-22T05:16:55.275Z,66.14
2017-07-22T05:19:21.668Z,66.40
2017-07-22T05:21:48.039Z,66.48
2017-07-22T05:24:14.438Z,67.48
2017-07-22T05:26:40.803Z,67.86
2017-07-22T05:29:07.162Z,67.62
2017-07-22T05:31:33.547Z,68.17
2017-07-22T05:34:00.721Z,68.05
2017-07-22T05:36:27.847Z,68.11
2017-07-22T05:38:54.217Z,67.99
2017-07-22T05:41:20.600Z,67.79
2017-07-22T05:43:46.977Z,67.67
2017-07-22T05:46:13.375Z,67.99
2017-07-22T05:48:39.739Z,67.94
2017-07-22T05:51:06.110Z,68.04
2017-07-22T05:53:32.483Z,68.03
2017-07-22T05:55:58.838Z,68.32
2017-07-22T05:58:25.206Z,68.27
2017-07-22T06:00:51.617Z,68.19
2017-07-22T06:03:18.006Z,68.03
2017-07-22T06:05:44.373Z,68.40
2017-07-22T06:08:10.743Z,68.10
2017-07-22T06:10:37.110Z,68.00
2017-07-22T06:13:03.466Z,68.43
2017-07-22T06:15:29.850Z,67.88
2017-07-22T06:17:56.218Z,68.69
2017-07-22T06:20:23.366Z,68.09
2017-07-22T06:22:49.739Z,68.14
2017-07-22T06:25:16.884Z,68.76
2017-07-22T06:27:43.244Z,68.76
2017-07-22T06:30:10.373Z,68.49
2017-07-22T06:32:36.746Z,68.60
2017-07-22T06:35:03.116Z,68.68
2017-07-22T06:37:30.247Z,68.37
2017-07-22T06:39:56.602Z,68.54
2017-07-22T06:42:22.970Z,68.52
2017-07-22T06:44:49.458Z,68.06
2017-07-22T06:47:15.827Z,67.50
2017-07-22T06:49:42.202Z,68.15
2017-07-22T06:52:08.560Z,67.62
2017-07-22T06:54:34.940Z,67.47
2017-07-22T06:57:02.084Z,67.37
2017-07-22T06:59:28.448Z,67.38
2017-07-22T07:01:55.602Z,67.38
2017-07-22T07:04:21.960Z,67.34
2017-07-22T07:06:49.106Z,67.28
2017-07-22T07:09:15.470Z,66.99
2017-07-22T07:11:41.868Z,67.05
2017-07-22T07:14:08.240Z,67.23
2017-07-22T07:16:34.615Z,67.03
2017-07-22T07:19:00.982Z,65.84
2017-07-22T07:21:27.355Z,66.17
2017-07-22T07:23:53.718Z,66.27
2017-07-22T07:26:20.112Z,66.48
2017-07-22T07:28:46.495Z,66.00
2017-07-22T07:31:13.623Z,66.16
2017-07-22T07:33:39.992Z,66.55
2017-07-22T07:36:06.378Z,66.42
2017-07-22T07:38:32.740Z,66.23
2017-07-22T07:40:59.123Z,66.25
2017-07-22T07:43:25.494Z,66.78
2017-07-22T07:45:51.868Z,66.66
2017-07-22T07:48:18.227Z,66.42
2017-07-22T07:50:44.599Z,66.06
2017-07-22T07:53:11.782Z,66.75
2017-07-22T07:55:38.149Z,66.78
2017-07-22T07:58:04.502Z,66.56
2017-07-22T08:00:31.655Z,66.67
2017-07-22T08:02:58.024Z,66.52
2017-07-22T08:05:25.167Z,65.96
2017-07-22T08:07:51.544Z,66.31
2017-07-22T08:10:18.675Z,66.21
2017-07-22T08:12:45.040Z,66.43
2017-07-22T08:15:11.414Z,66.01
2017-07-22T08:17:38.575Z,65.63
2017-07-22T08:20:05.703Z,65.50
2017-07-22T08:22:32.075Z,65.47
2017-07-22T08:24:58.447Z,65.41
2017-07-22T08:27:25.610Z,65.48
2017-07-22T08:29:51.975Z,65.44
2017-07-22T08:32:19.110Z,65.39
2017-07-22T08:34:45.475Z,66.17
2017-07-22T08:37:11.835Z,67.07
2017-07-22T08:39:39.003Z,66.43
2017-07-22T08:42:06.132Z,66.09
2017-07-22T08:44:32.537Z,65.92
2017-07-22T08:46:58.906Z,65.79
2017-07-22T08:49:25.284Z,65.71
2017-07-22T08:51:51.671Z,65.60
2017-07-22T08:54:18.046Z,65.54
2017-07-22T08:56:44.414Z,65.45
2017-07-22T08:59:10.786Z,65.48
2017-07-22T09:01:37.174Z,65.42
2017-07-22T09:04:04.331Z,65.31
2017-07-22T09:06:31.475Z,65.26
2017-07-22T09:08:57.863Z,65.19
2017-07-22T09:11:24.223Z,65.16
2017-07-22T09:13:50.627Z,65.17
2017-07-22T09:16:16.996Z,65.16
2017-07-22T09:18:43.356Z,65.16
2017-07-22T09:21:09.743Z,65.09
2017-07-22T09:23:36.119Z,65.08
2017-07-22T09:26:02.523Z,65.04
2017-07-22T09:28:28.891Z,64.95
2017-07-22T09:30:55.285Z,65.30
2017-07-22T09:33:21.666Z,65.14
2017-07-22T09:35:48.078Z,65.09
2017-07-22T09:38:14.515Z,65.03
2017-07-22T09:40:40.896Z,65.06
2017-07-22T09:43:07.257Z,65.14
2017-07-22T09:45:33.635Z,65.14
2017-07-22T09:48:00.015Z,65.14
2017-07-22T09:50:26.517Z,65.07
2017-07-22T09:52:52.879Z,65.04
2017-07-22T09:55:19.246Z,65.14
2017-07-22T09:57:45.613Z,65.04
2017-07-22T10:00:12.018Z,65.07
2017-07-22T10:02:38.443Z,65.02
2017-07-22T10:05:04.823Z,65.10
2017-07-22T10:07:31.182Z,64.97
2017-07-22T10:09:57.551Z,64.91
2017-07-22T10:12:23.948Z,64.76
2017-07-22T10:14:51.079Z,64.75
2017-07-22T10:17:17.452Z,64.80
2017-07-22T10:19:43.836Z,64.87
2017-07-22T10:22:10.252Z,64.89
2017-07-22T10:24:36.667Z,64.84
2017-07-22T10:27:03.042Z,64.82
2017-07-22T10:29:29.427Z,64.99
2017-07-22T10:31:56.560Z,65.12
2017-07-22T10:34:22.951Z,65.08
2017-07-22T10:36:49.315Z,64.98
2017-07-22T10:39:15.719Z,64.75
2017-07-22T10:41:42.092Z,64.73
2017-07-22T10:44:08.496Z,64.75
2017-07-22T10:46:34.964Z,64.90
2017-07-22T10:49:01.371Z,64.91
2017-07-22T10:51:27.731Z,64.80
2017-07-22T10:53:54.076Z,65.19
2017-07-22T10:56:20.440Z,65.36
2017-07-22T10:58:46.803Z,65.26
2017-07-22T11:01:13.190Z,65.18
2017-07-22T11:03:40.308Z,65.33
2017-07-22T11:06:06.706Z,65.74
2017-07-22T11:08:33.838Z,65.57
2017-07-22T11:11:00.230Z,65.46
2017-07-22T11:13:26.643Z,65.31
2017-07-22T11:15:53.033Z,65.07
2017-07-22T11:18:19.412Z,64.95
2017-07-22T11:20:45.776Z,64.58
2017-07-22T11:23:12.165Z,64.72
2017-07-22T11:25:39.306Z,64.54
2017-07-22T11:28:05.667Z,64.78
2017-07-22T11:30:32.056Z,64.28
2017-07-22T11:32:58.414Z,64.54
2017-07-22T11:35:24.794Z,64.20
2017-07-22T11:37:51.167Z,64.16
2017-07-22T11:40:17.558Z,64.16
2017-07-22T11:42:43.924Z,64.31
2017-07-22T11:45:10.314Z,64.45
2017-07-22T11:47:36.748Z,64.48
2017-07-22T11:50:03.134Z,64.61
2017-07-22T11:52:29.519Z,64.46
2017-07-22T11:54:55.880Z,64.48
2017-07-22T11:57:22.273Z,64.52
2017-07-22T11:59:48.647Z,64.48
2017-07-22T12:02:15.314Z,64.59
2017-07-22T12:04:41.699Z,64.85
2017-07-22T12:07:08.072Z,64.87
2017-07-22T12:09:34.456Z,64.75
2017-07-22T12:12:00.840Z,64.68
2017-07-22T12:14:27.214Z,64.68
2017-07-22T12:16:53.571Z,64.62
2017-07-22T12:19:19.936Z,64.55
2017-07-22T12:21:46.316Z,64.49
2017-07-22T12:24:12.677Z,64.56
2017-07-22T12:26:39.042Z,64.55
2017-07-22T12:29:05.417Z,64.68
2017-07-22T12:31:31.787Z,64.72
2017-07-22T12:33:58.913Z,64.66
2017-07-22T12:36:25.299Z,64.68
2017-07-22T12:38:51.733Z,64.68
2017-07-22T12:41:18.107Z,64.69
2017-07-22T12:43:44.506Z,64.73
2017-07-22T12:46:10.867Z,64.79
2017-07-22T12:48:37.250Z,64.72
2017-07-22T12:51:04.389Z,64.68
2017-07-22T12:53:30.757Z,64.71
2017-07-22T12:55:57.127Z,64.69
2017-07-22T12:58:24.255Z,64.70
2017-07-22T13:00:50.646Z,64.71
2017-07-22T13:03:17.011Z,64.71
2017-07-22T13:05:43.375Z,64.70
2017-07-22T13:08:09.745Z,64.70
2017-07-22T13:10:36.119Z,64.72
2017-07-22T13:13:02.496Z,64.78
2017-07-22T13:15:28.863Z,64.84
2017-07-22T13:17:55.235Z,64.83
2017-07-22T13:20:21.611Z,64.80
2017-07-22T13:22:47.995Z,64.81
2017-07-22T13:25:15.123Z,64.88
2017-07-22T13:27:41.778Z,64.80
2017-07-22T13:30:08.155Z,64.80
2017-07-22T13:32:34.671Z,64.79
2017-07-22T13:35:01.043Z,64.77
2017-07-22T13:37:27.435Z,64.75
2017-07-22T13:39:53.802Z,64.70
2017-07-22T13:42:20.171Z,64.75
2017-07-22T13:44:46.619Z,64.77
2017-07-22T13:47:13.174Z,64.75
2017-07-22T13:49:39.735Z,64.76
2017-07-22T13:52:06.099Z,64.94
2017-07-22T13:54:32.471Z,64.84
2017-07-22T13:56:58.843Z,64.65
2017-07-22T13:59:25.212Z,64.82
2017-07-22T14:01:51.699Z,64.84
2017-07-22T14:04:18.089Z,64.88
2017-07-22T14:06:44.468Z,65.42
2017-07-22T14:09:10.935Z,65.55
2017-07-22T14:11:37.344Z,65.28
2017-07-22T14:14:03.719Z,65.38
2017-07-22T14:16:30.084Z,65.76
2017-07-22T14:18:56.446Z,66.00
2017-07-22T14:21:22.823Z,66.03
2017-07-22T14:23:49.964Z,66.08
2017-07-22T14:26:16.359Z,66.31
2017-07-22T14:28:42.730Z,66.25
2017-07-22T14:31:09.153Z,66.16
2017-07-22T14:33:35.517Z,65.90
2017-07-22T14:36:01.890Z,66.27
2017-07-22T14:38:28.291Z,66.21
2017-07-22T14:40:55.434Z,66.06
2017-07-22T14:43:21.798Z,65.89
2017-07-22T14:45:48.183Z,65.83
2017-07-22T14:48:14.560Z,65.91
2017-07-22T14:50:40.949Z,65.97
2017-07-22T14:53:07.320Z,65.85
2017-07-22T14:55:33.704Z,65.70
2017-07-22T14:58:00.068Z,65.85
2017-07-22T15:00:26.450Z,65.80
2017-07-22T15:02:53.607Z,65.69
2017-07-22T15:05:19.984Z,65.90
2017-07-22T15:07:46.360Z,65.64
2017-07-22T15:10:12.747Z,65.71
2017-07-22T15:12:39.148Z,65.68
2017-07-22T15:15:05.544Z,65.72
2017-07-22T15:17:31.920Z,65.14
2017-07-22T15:19:59.064Z,65.23
2017-07-22T15:22:25.446Z,64.88
2017-07-22T15:24:52.600Z,64.62
2017-07-22T15:27:20.041Z,64.05
2017-07-22T15:29:46.435Z,63.79
2017-07-22T15:32:12.842Z,63.48
2017-07-22T15:34:39.247Z,63.10
2017-07-22T15:37:05.656Z,62.98
2017-07-22T15:39:32.019Z,62.85
2017-07-22T15:41:58.423Z,62.64
2017-07-22T15:44:24.834Z,62.61
2017-07-22T15:46:52.011Z,62.48
2017-07-22T15:49:19.166Z,62.36
2017-07-22T15:51:46.307Z,62.33
2017-07-22T15:56:45.942Z,62.16
2017-07-22T15:59:12.326Z,62.07
2017-07-22T16:01:38.699Z,61.97
2017-07-22T16:04:05.102Z,61.75
2017-07-22T16:06:31.464Z,61.59
2017-07-22T16:08:57.846Z,61.44
2017-07-22T16:11:24.243Z,61.42
2017-07-22T16:13:50.626Z,61.38
2017-07-22T16:16:16.981Z,61.53
2017-07-22T16:18:44.124Z,61.33
2017-07-22T16:21:10.495Z,61.38
2017-07-22T16:23:37.628Z,61.33
2017-07-22T16:26:03.990Z,61.41
2017-07-22T16:28:30.362Z,61.33
2017-07-22T16:30:56.749Z,61.20
2017-07-22T16:33:23.133Z,61.20
2017-07-22T16:35:49.518Z,61.15
2017-07-22T16:38:15.919Z,61.19
2017-07-22T16:40:42.297Z,60.99
2017-07-22T16:43:08.686Z,60.75
2017-07-22T16:45:35.082Z,60.61
2017-07-22T16:48:01.462Z,60.36
2017-07-22T16:50:28.602Z,60.22
2017-07-22T16:52:54.991Z,60.17
2017-07-22T16:55:21.408Z,60.07
2017-07-22T16:57:47.794Z,60.17
2017-07-22T17:00:14.170Z,60.15
2017-07-22T17:02:40.560Z,60.20
2017-07-22T17:05:06.919Z,60.31
2017-07-22T17:07:33.314Z,60.32
2017-07-22T17:09:59.713Z,60.49
2017-07-22T17:12:26.087Z,60.52
2017-07-22T17:14:53.326Z,60.50
2017-07-22T17:17:19.699Z,60.42
2017-07-22T17:19:46.100Z,60.35
2017-07-22T17:22:12.524Z,60.49
2017-07-22T17:24:39.650Z,60.48
2017-07-22T17:27:06.025Z,60.34
2017-07-22T17:29:33.294Z,60.15
2017-07-22T17:31:59.803Z,59.95
2017-07-22T17:34:26.198Z,59.81
2017-07-22T17:36:52.582Z,59.91
2017-07-22T17:39:18.947Z,59.87
2017-07-22T17:41:45.413Z,59.71
2017-07-22T17:44:11.791Z,59.57
2017-07-22T17:46:38.166Z,59.56
2017-07-22T17:49:05.401Z,59.73
2017-07-22T17:51:31.787Z,59.77
2017-07-22T17:53:58.162Z,60.69
2017-07-22T17:56:24.536Z,61.21
2017-07-22T17:58:50.936Z,61.41
2017-07-22T18:01:17.325Z,61.66
2017-07-22T18:03:43.692Z,61.90
2017-07-22T18:06:10.139Z,61.93
2017-07-22T18:08:36.511Z,62.00
2017-07-22T18:11:02.905Z,62.17
2017-07-22T18:13:29.267Z,62.31
2017-07-22T18:15:55.667Z,62.64
2017-07-22T18:18:22.829Z,62.46
2017-07-22T18:20:49.214Z,62.47
2017-07-22T18:23:15.607Z,62.60
2017-07-22T18:25:42.174Z,62.45
2017-07-22T18:28:08.532Z,62.53
2017-07-22T18:30:34.916Z,62.56
2017-07-22T18:33:01.286Z,62.92
2017-07-22T18:35:27.665Z,62.52
2017-07-22T18:37:54.027Z,62.68
2017-07-22T18:40:21.494Z,62.62
2017-07-22T18:42:47.877Z,62.61
2017-07-22T18:45:14.256Z,62.67
2017-07-22T18:47:40.625Z,62.70
2017-07-22T18:50:07.006Z,62.83
2017-07-22T18:52:34.167Z,63.00
2017-07-22T18:55:00.548Z,63.11
2017-07-22T18:57:26.935Z,63.17
2017-07-22T18:59:53.310Z,63.08
2017-07-22T19:02:19.699Z,63.03
2017-07-22T19:04:46.076Z,63.01
2017-07-22T19:07:12.482Z,62.96
2017-07-22T19:09:39.622Z,63.02
2017-07-22T19:12:05.990Z,63.05
2017-07-22T19:14:32.348Z,63.02
2017-07-22T19:16:59.496Z,62.87
2017-07-22T19:19:25.880Z,62.82
2017-07-22T19:21:52.284Z,62.80
2017-07-22T19:24:18.667Z,62.79
2017-07-22T19:26:45.056Z,62.74
2017-07-22T19:29:11.434Z,62.73
2017-07-22T19:31:37.810Z,62.74
2017-07-22T19:34:04.943Z,62.77
2017-07-22T19:36:31.336Z,62.82
2017-07-22T19:38:58.471Z,62.71
2017-07-22T19:41:24.843Z,62.68
2017-07-22T19:43:51.967Z,62.62
2017-07-22T19:46:18.334Z,62.74
2017-07-22T19:48:44.729Z,62.90
2017-07-22T19:51:11.112Z,63.11
2017-07-22T19:53:37.473Z,63.08
2017-07-22T19:56:03.843Z,63.18
2017-07-22T19:58:30.210Z,63.26
2017-07-22T20:00:56.614Z,63.25
2017-07-22T20:03:22.979Z,63.24
2017-07-22T20:05:49.360Z,63.24
2017-07-22T20:08:16.512Z,63.33
2017-07-22T20:10:42.878Z,63.36
2017-07-22T20:13:10.015Z,63.31
2017-07-22T20:15:36.379Z,63.46
2017-07-22T20:18:02.876Z,63.41
2017-07-22T20:20:29.256Z,63.56
2017-07-22T20:22:55.623Z,63.53
2017-07-22T20:25:22.014Z,63.40
2017-07-22T20:27:48.393Z,63.32
2017-07-22T20:30:14.755Z,63.26
2017-07-22T20:32:41.135Z,63.46
2017-07-22T20:35:07.515Z,63.62
2017-07-22T20:37:33.896Z,63.70
2017-07-22T20:40:00.259Z,63.77
2017-07-22T20:42:26.636Z,63.58
2017-07-22T20:44:53.004Z,63.31
2017-07-22T20:47:20.793Z,63.10
2017-07-22T20:49:47.186Z,62.92
2017-07-22T20:52:13.570Z,62.34
2017-07-22T20:54:39.934Z,62.92
2017-07-22T20:57:06.298Z,62.89
2017-07-22T20:59:33.627Z,63.15
2017-07-22T21:02:00.067Z,63.28
2017-07-22T21:04:26.535Z,63.30
2017-07-22T21:06:53.031Z,63.26
2017-07-22T21:09:19.482Z,63.36
2017-07-22T21:11:45.904Z,63.15
2017-07-22T21:14:13.139Z,63.58
2017-07-22T21:16:39.505Z,63.53
2017-07-22T21:19:06.112Z,63.52
2017-07-22T21:21:32.598Z,63.54
2017-07-22T21:23:59.048Z,63.62
2017-07-22T21:26:26.001Z,63.60
2017-07-22T21:28:52.641Z,63.61
2017-07-22T21:31:19.215Z,63.50
2017-07-22T21:33:45.607Z,63.69
2017-07-22T21:36:11.967Z,63.61
2017-07-22T21:38:38.347Z,63.55
2017-07-22T21:41:04.702Z,63.53
2017-07-22T21:43:31.097Z,63.62
2017-07-22T21:45:57.463Z,63.70
2017-07-22T21:48:23.846Z,63.94
2017-07-22T21:50:50.211Z,63.94
2017-07-22T21:53:16.631Z,63.83
2017-07-22T21:55:43.000Z,63.84
2017-07-22T21:58:09.367Z,63.99
2017-07-22T22:00:35.940Z,64.01
2017-07-22T22:03:02.306Z,64.04
2017-07-22T22:05:29.433Z,64.18
2017-07-22T22:07:55.801Z,64.29
2017-07-22T22:10:22.134Z,64.37
2017-07-22T22:12:48.523Z,64.34
2017-07-22T22:15:15.666Z,64.37
2017-07-22T22:17:42.037Z,64.61
2017-07-22T22:20:09.153Z,64.68
2017-07-22T22:22:35.525Z,64.62
2017-07-22T22:25:01.927Z,64.63
2017-07-22T22:27:28.311Z,64.76
2017-07-22T22:29:54.683Z,64.95
2017-07-22T22:32:21.042Z,64.90
2017-07-22T22:34:47.434Z,64.80
2017-07-22T22:37:13.790Z,64.72
2017-07-22T22:39:40.155Z,64.84
2017-07-22T22:42:06.521Z,64.89
2017-07-22T22:44:32.902Z,64.99
2017-07-22T22:47:00.019Z,64.90
2017-07-22T22:49:26.409Z,64.90
2017-07-22T22:51:52.788Z,64.93
2017-07-22T22:54:19.171Z,64.93
2017-07-22T22:56:45.526Z,64.98
2017-07-22T22:59:11.931Z,64.93
2017-07-22T23:01:38.316Z,64.88
2017-07-22T23:04:04.684Z,64.92
2017-07-22T23:06:31.408Z,64.99
2017-07-22T23:08:57.768Z,65.04
2017-07-22T23:11:24.146Z,65.15
2017-07-22T23:13:50.524Z,65.18
2017-07-22T23:16:17.747Z,65.25
2017-07-22T23:18:44.130Z,65.32
2017-07-22T23:21:10.507Z,65.39
2017-07-22T23:23:36.874Z,65.42
2017-07-22T23:26:03.256Z,65.34
2017-07-22T23:28:30.222Z,65.32
2017-07-22T23:30:56.602Z,65.30
2017-07-22T23:33:23.728Z,65.32
2017-07-22T23:35:50.115Z,65.39
2017-07-22T23:38:17.266Z,65.33
2017-07-22T23:40:43.622Z,65.35
2017-07-22T23:43:10.769Z,65.31
2017-07-22T23:45:37.157Z,65.32
2017-07-22T23:48:04.302Z,65.40
2017-07-22T23:50:30.687Z,65.39
2017-07-22T23:52:57.075Z,65.38
2017-07-22T23:55:23.444Z,65.33
2017-07-22T23:57:49.834Z,65.33
